Maersk Erin — OUWG2 — position and weather

sailwx.info

Track history (hours):
 
Tides and Currents Weather Stations Pressure Air Temp Water Temp Dewpoint Dewpoint Depression Visibility Wind Speed Wind Dir Waves Ship Positions

Maersk Erin

Last reported at 2018-Feb-18 20:00 UTC. Time now 2018-Feb-18 20:26 UTC.
Position N 59°51' E 025°29'.

Length 186 m; draft 6.9 m.

Type: Ship. MMSI: 219410000.

Date/timePositionNaut miles runAvg speedWind from/ knotsBaromVisibWave heightAir tempDewpointWater temp
2018-Feb-18 20:00N 59°51' E 025°29'4 7.6
2018-Feb-18 19:30N 59°50' E 025°21'4 8.2
2018-Feb-18 19:00N 59°49' E 025°13'4 8.3
2018-Feb-18 18:30N 59°48' E 025°05'4 8.3
2018-Feb-18 18:00N 59°47' E 024°57'4 8.3
2018-Feb-18 17:30N 59°46' E 024°49'4 8.2
2018-Feb-18 17:00N 59°45' E 024°41'4 8.0
2018-Feb-18 16:30N 59°44' E 024°34'4 8.6
2018-Feb-18 16:00N 59°44' E 024°25'4 8.1
2018-Feb-18 15:29N 59°42' E 024°17'5 9.8
2018-Feb-18 15:00N 59°41' E 024°09'510.0
2018-Feb-18 14:30N 59°39' E 023°59'510.1
2018-Feb-18 14:00N 59°37' E 023°50'510.3
2018-Feb-18 13:30N 59°35' E 023°40'510.2
2018-Feb-18 13:00N 59°34' E 023°31'5 9.8
2018-Feb-18 12:30N 59°32' E 023°22'5 9.8
2018-Feb-18 12:00N 59°31' E 023°13'5 9.6
2018-Feb-18 11:30N 59°29' E 023°04'6 9.7
2018-Feb-18 10:52N 59°27' E 022°52'4 9.9
2018-Feb-18 10:30N 59°26' E 022°45'28411.0
2018-Feb-17 08:45N 55°50' E 017°01'312.2
2018-Feb-17 08:30N 55°49' E 016°55'612.2
2018-Feb-17 08:00N 55°47' E 016°45'612.3
2018-Feb-17 07:30N 55°46' E 016°34'612.3
2018-Feb-17 07:00N 55°44' E 016°24'612.6
2018-Feb-17 06:30N 55°43' E 016°13'612.6
2018-Feb-17 06:00N 55°41' E 016°02'612.5
2018-Feb-17 05:30N 55°40' E 015°51'612.7
2018-Feb-17 05:00N 55°38' E 015°40'612.6
2018-Feb-17 04:30N 55°37' E 015°30'612.4
2018-Feb-17 04:00N 55°34' E 015°20'612.4
2018-Feb-17 03:30N 55°31' E 015°10'612.2
2018-Feb-17 03:00N 55°29' E 014°60'612.2
2018-Feb-17 02:30N 55°27' E 014°50'711.9
2018-Feb-17 01:54N 55°23' E 014°39'511.8
2018-Feb-17 01:30N 55°20' E 014°34'611.9
2018-Feb-17 01:00N 55°15' E 014°27'611.8
2018-Feb-17 00:30N 55°11' E 014°20'611.1
2018-Feb-17 00:00N 55°09' E 014°11'1612.7
2018-Feb-16 22:45N 55°10' E 013°43'712.8
2018-Feb-16 22:14N 55°10' E 013°31'412.6
2018-Feb-16 21:53N 55°10' E 013°24'512.6
2018-Feb-16 21:30N 55°11' E 013°15'612.6
2018-Feb-16 21:00N 55°11' E 013°04'611.9
2018-Feb-16 20:30N 55°14' E 012°55'612.6
2018-Feb-16 20:00N 55°16' E 012°45'510.8
2018-Feb-16 19:30N 55°20' E 012°38'713.0
2018-Feb-16 19:00N 55°26' E 012°40'611.6
2018-Feb-16 18:30N 55°32' E 012°42'5 9.7
2018-Feb-16 18:00N 55°37' E 012°42'510.3
2018-Feb-16 17:30N 55°42' E 012°41'3 5.6
2018-Feb-16 17:00N 55°45' E 012°41'4 8.7
2018-Feb-16 16:30N 55°49' E 012°42'713.5
2018-Feb-16 16:00N 55°55' E 012°39'713.6
2018-Feb-16 15:30N 56°02' E 012°39'713.9
2018-Feb-16 15:00N 56°07' E 012°30'713.7
2018-Feb-16 14:30N 56°11' E 012°20'713.9
2018-Feb-16 14:00N 56°15' E 012°10'612.8
2018-Feb-16 13:30N 56°20' E 012°02'3413.2
2018-Feb-16 10:56N 56°53' E 011°47'512.0
2018-Feb-16 10:30N 56°58' E 011°47'5 9.6
2018-Feb-16 10:00N 57°03' E 011°50'1 1.6
2018-Feb-16 09:30N 57°03' E 011°50'1 1.1
2018-Feb-16 09:00N 57°03' E 011°49'1 1.2
2018-Feb-16 08:30N 57°03' E 011°48'1 1.0
2018-Feb-16 08:00N 57°02' E 011°47'3 6.8
2018-Feb-16 07:30N 57°01' E 011°41'3 6.7
2018-Feb-16 07:00N 57°04' E 011°39'612.5
2018-Feb-16 06:30N 57°10' E 011°34'612.5
2018-Feb-16 06:00N 57°16' E 011°31'612.0
2018-Feb-16 05:30N 57°21' E 011°27'510.7
2018-Feb-16 05:00N 57°27' E 011°25'611.9
2018-Feb-16 04:30N 57°31' E 011°17'612.0
2018-Feb-16 04:00N 57°35' E 011°09'510.8
2018-Feb-16 03:30N 57°39' E 011°02'611.4
2018-Feb-16 03:00N 57°43' E 010°54'611.4
2018-Feb-16 02:30N 57°46' E 010°45'611.4
2018-Feb-16 02:00N 57°48' E 010°35'611.8
2018-Feb-16 01:30N 57°48' E 010°24'611.7
2018-Feb-16 01:00N 57°47' E 010°13'42712.2
2018-Feb-14 14:02N 52°08' E 002°42'1314.1
2018-Feb-14 13:05N 51°55' E 002°39'214.0
2018-Feb-14 12:58N 51°53' E 002°39'713.8
2018-Feb-14 12:27N 51°46' E 002°36'614.0
2018-Feb-14 12:00N 51°42' E 002°30'713.9
2018-Feb-14 11:30N 51°36' E 002°23'713.5
2018-Feb-14 11:00N 51°31' E 002°15'713.3
2018-Feb-14 10:31N 51°25' E 002°12'713.1
2018-Feb-14 10:01N 51°19' E 002°08'713.3
2018-Feb-14 09:30N 51°13' E 002°01'713.1
2018-Feb-14 09:01N 51°10' E 001°52'612.5
2018-Feb-14 08:31N 51°07' E 001°44'611.9
2018-Feb-14 08:00N 51°03' E 001°37'611.5
2018-Feb-14 07:31N 50°58' E 001°31'611.1
2018-Feb-14 07:00N 50°54' E 001°26'612.0
2018-Feb-14 06:30N 50°48' E 001°23'611.4
2018-Feb-14 06:00N 50°43' E 001°21'611.8
2018-Feb-14 05:28N 50°38' E 001°14'1411.6
2018-Feb-14 04:15N 50°29' E 000°56'611.9
2018-Feb-14 03:43N 50°28' E 000°46'211.9
2018-Feb-14 03:30N 50°27' E 000°43'611.8
2018-Feb-14 03:00N 50°26' E 000°34'611.7
2018-Feb-14 02:31N 50°24' E 000°25'611.6
2018-Feb-14 02:00N 50°23' E 000°16'611.6
2018-Feb-14 01:30N 50°21' E 000°07'611.7
2018-Feb-14 01:01N 50°20' W 000°02'611.7
2018-Feb-14 00:30N 50°19' W 000°11'611.7
2018-Feb-14 00:00N 50°17' W 000°19'611.8
2018-Feb-13 23:30N 50°15' W 000°28'1312.2
2018-Feb-13 22:28N 50°12' W 000°47'613.0
2018-Feb-13 22:01N 50°10' W 000°56'713.6
2018-Feb-13 21:30N 50°08' W 001°06'714.1
2018-Feb-13 21:01N 50°07' W 001°17'714.6
2018-Feb-13 20:30N 50°05' W 001°28'715.0
2018-Feb-13 20:00N 50°03' W 001°39'815.4
2018-Feb-13 19:30N 50°01' W 001°51'2415.2
2018-Feb-13 17:56N 49°54' W 002°26'614.5
2018-Feb-13 17:30N 49°53' W 002°36'714.1
2018-Feb-13 17:00N 49°51' W 002°46'713.8
2018-Feb-13 16:30N 49°49' W 002°57'713.5
2018-Feb-13 16:01N 49°48' W 003°07'713.3
2018-Feb-13 15:31N 49°47' W 003°17'713.1
2018-Feb-13 15:00N 49°46' W 003°27'613.0
2018-Feb-13 14:30N 49°44' W 003°37'712.8
2018-Feb-13 14:00N 49°44' W 003°47'1312.5
2018-Feb-13 13:00N 49°42' W 004°06'812.1
2018-Feb-13 12:18N 49°40' W 004°19'  
Track history (hours):
 
Tides and Currents Weather Stations Pressure Air Temp Water Temp Dewpoint Dewpoint Depression Visibility Wind Speed Wind Dir Waves Ship Positions

Maersk Erin

Last reported at 2018-Feb-18 20:00 UTC. Time now 2018-Feb-18 20:26 UTC.
Position N 59°51' E 025°29'.

Length 186 m; draft 6.9 m.

Type: Ship. MMSI: 219410000.

Date/timePositionNaut miles runAvg speedWind from/ knotsBaromVisibWave heightAir tempDewpointWater temp
2018-Feb-18 20:00N 59°51' E 025°29'4 7.6
2018-Feb-18 19:30N 59°50' E 025°21'4 8.2
2018-Feb-18 19:00N 59°49' E 025°13'4 8.3
2018-Feb-18 18:30N 59°48' E 025°05'4 8.3
2018-Feb-18 18:00N 59°47' E 024°57'4 8.3
2018-Feb-18 17:30N 59°46' E 024°49'4 8.2
2018-Feb-18 17:00N 59°45' E 024°41'4 8.0
2018-Feb-18 16:30N 59°44' E 024°34'4 8.6
2018-Feb-18 16:00N 59°44' E 024°25'4 8.1
2018-Feb-18 15:29N 59°42' E 024°17'5 9.8
2018-Feb-18 15:00N 59°41' E 024°09'510.0
2018-Feb-18 14:30N 59°39' E 023°59'510.1
2018-Feb-18 14:00N 59°37' E 023°50'510.3
2018-Feb-18 13:30N 59°35' E 023°40'510.2
2018-Feb-18 13:00N 59°34' E 023°31'5 9.8
2018-Feb-18 12:30N 59°32' E 023°22'5 9.8
2018-Feb-18 12:00N 59°31' E 023°13'5 9.6
2018-Feb-18 11:30N 59°29' E 023°04'6 9.7
2018-Feb-18 10:52N 59°27' E 022°52'4 9.9
2018-Feb-18 10:30N 59°26' E 022°45'28411.0
2018-Feb-17 08:45N 55°50' E 017°01'312.2
2018-Feb-17 08:30N 55°49' E 016°55'612.2
2018-Feb-17 08:00N 55°47' E 016°45'612.3
2018-Feb-17 07:30N 55°46' E 016°34'612.3
2018-Feb-17 07:00N 55°44' E 016°24'612.6
2018-Feb-17 06:30N 55°43' E 016°13'612.6
2018-Feb-17 06:00N 55°41' E 016°02'612.5
2018-Feb-17 05:30N 55°40' E 015°51'612.7
2018-Feb-17 05:00N 55°38' E 015°40'612.6
2018-Feb-17 04:30N 55°37' E 015°30'612.4
2018-Feb-17 04:00N 55°34' E 015°20'612.4
2018-Feb-17 03:30N 55°31' E 015°10'612.2
2018-Feb-17 03:00N 55°29' E 014°60'612.2
2018-Feb-17 02:30N 55°27' E 014°50'711.9
2018-Feb-17 01:54N 55°23' E 014°39'511.8
2018-Feb-17 01:30N 55°20' E 014°34'611.9
2018-Feb-17 01:00N 55°15' E 014°27'611.8
2018-Feb-17 00:30N 55°11' E 014°20'611.1
2018-Feb-17 00:00N 55°09' E 014°11'1612.7
2018-Feb-16 22:45N 55°10' E 013°43'712.8
2018-Feb-16 22:14N 55°10' E 013°31'412.6
2018-Feb-16 21:53N 55°10' E 013°24'512.6
2018-Feb-16 21:30N 55°11' E 013°15'612.6
2018-Feb-16 21:00N 55°11' E 013°04'611.9
2018-Feb-16 20:30N 55°14' E 012°55'612.6
2018-Feb-16 20:00N 55°16' E 012°45'510.8
2018-Feb-16 19:30N 55°20' E 012°38'713.0
2018-Feb-16 19:00N 55°26' E 012°40'611.6
2018-Feb-16 18:30N 55°32' E 012°42'5 9.7
2018-Feb-16 18:00N 55°37' E 012°42'510.3
2018-Feb-16 17:30N 55°42' E 012°41'3 5.6
2018-Feb-16 17:00N 55°45' E 012°41'4 8.7
2018-Feb-16 16:30N 55°49' E 012°42'713.5
2018-Feb-16 16:00N 55°55' E 012°39'713.6
2018-Feb-16 15:30N 56°02' E 012°39'713.9
2018-Feb-16 15:00N 56°07' E 012°30'713.7
2018-Feb-16 14:30N 56°11' E 012°20'713.9
2018-Feb-16 14:00N 56°15' E 012°10'612.8
2018-Feb-16 13:30N 56°20' E 012°02'3413.2
2018-Feb-16 10:56N 56°53' E 011°47'512.0
2018-Feb-16 10:30N 56°58' E 011°47'5 9.6
2018-Feb-16 10:00N 57°03' E 011°50'1 1.6
2018-Feb-16 09:30N 57°03' E 011°50'1 1.1
2018-Feb-16 09:00N 57°03' E 011°49'1 1.2
2018-Feb-16 08:30N 57°03' E 011°48'1 1.0
2018-Feb-16 08:00N 57°02' E 011°47'3 6.8
2018-Feb-16 07:30N 57°01' E 011°41'3 6.7
2018-Feb-16 07:00N 57°04' E 011°39'612.5
2018-Feb-16 06:30N 57°10' E 011°34'612.5
2018-Feb-16 06:00N 57°16' E 011°31'612.0
2018-Feb-16 05:30N 57°21' E 011°27'510.7
2018-Feb-16 05:00N 57°27' E 011°25'611.9
2018-Feb-16 04:30N 57°31' E 011°17'612.0
2018-Feb-16 04:00N 57°35' E 011°09'510.8
2018-Feb-16 03:30N 57°39' E 011°02'611.4
2018-Feb-16 03:00N 57°43' E 010°54'611.4
2018-Feb-16 02:30N 57°46' E 010°45'611.4
2018-Feb-16 02:00N 57°48' E 010°35'611.8
2018-Feb-16 01:30N 57°48' E 010°24'611.7
2018-Feb-16 01:00N 57°47' E 010°13'42712.2
2018-Feb-14 14:02N 52°08' E 002°42'1314.1
2018-Feb-14 13:05N 51°55' E 002°39'214.0
2018-Feb-14 12:58N 51°53' E 002°39'713.8
2018-Feb-14 12:27N 51°46' E 002°36'614.0
2018-Feb-14 12:00N 51°42' E 002°30'713.9
2018-Feb-14 11:30N 51°36' E 002°23'713.5
2018-Feb-14 11:00N 51°31' E 002°15'713.3
2018-Feb-14 10:31N 51°25' E 002°12'713.1
2018-Feb-14 10:01N 51°19' E 002°08'713.3
2018-Feb-14 09:30N 51°13' E 002°01'713.1
2018-Feb-14 09:01N 51°10' E 001°52'612.5
2018-Feb-14 08:31N 51°07' E 001°44'611.9
2018-Feb-14 08:00N 51°03' E 001°37'611.5
2018-Feb-14 07:31N 50°58' E 001°31'611.1
2018-Feb-14 07:00N 50°54' E 001°26'612.0
2018-Feb-14 06:30N 50°48' E 001°23'611.4
2018-Feb-14 06:00N 50°43' E 001°21'611.8
2018-Feb-14 05:28N 50°38' E 001°14'1411.6
2018-Feb-14 04:15N 50°29' E 000°56'611.9
2018-Feb-14 03:43N 50°28' E 000°46'211.9
2018-Feb-14 03:30N 50°27' E 000°43'611.8
2018-Feb-14 03:00N 50°26' E 000°34'611.7
2018-Feb-14 02:31N 50°24' E 000°25'611.6
2018-Feb-14 02:00N 50°23' E 000°16'611.6
2018-Feb-14 01:30N 50°21' E 000°07'611.7
2018-Feb-14 01:01N 50°20' W 000°02'611.7
2018-Feb-14 00:30N 50°19' W 000°11'611.7
2018-Feb-14 00:00N 50°17' W 000°19'611.8
2018-Feb-13 23:30N 50°15' W 000°28'1312.2
2018-Feb-13 22:28N 50°12' W 000°47'613.0
2018-Feb-13 22:01N 50°10' W 000°56'713.6
2018-Feb-13 21:30N 50°08' W 001°06'714.1
2018-Feb-13 21:01N 50°07' W 001°17'714.6
2018-Feb-13 20:30N 50°05' W 001°28'715.0
2018-Feb-13 20:00N 50°03' W 001°39'815.4
2018-Feb-13 19:30N 50°01' W 001°51'2415.2
2018-Feb-13 17:56N 49°54' W 002°26'614.5
2018-Feb-13 17:30N 49°53' W 002°36'714.1
2018-Feb-13 17:00N 49°51' W 002°46'713.8
2018-Feb-13 16:30N 49°49' W 002°57'713.5
2018-Feb-13 16:01N 49°48' W 003°07'713.3
2018-Feb-13 15:31N 49°47' W 003°17'713.1
2018-Feb-13 15:00N 49°46' W 003°27'613.0
2018-Feb-13 14:30N 49°44' W 003°37'712.8
2018-Feb-13 14:00N 49°44' W 003°47'1312.5
2018-Feb-13 13:00N 49°42' W 004°06'812.1
2018-Feb-13 12:18N 49°40' W 004°19'  

Dump ship's entire track history